Time;durP1;ratioP1;P1;durP2;ratioP2;P2;SDS_P1;SDS_P2;PMS_P1;PMS_P2;Temp;Humidity;BMP_temperature;BMP_pressure;BME280_temperature;BME280_humidity;BME280_pressure;Samples;Min_cycle;Max_cycle;Signal;HPM_P1;HPM_P2
2021/05/29 00:00:48;;;;;;;4.65;2.60;;;;;;;13.61;60.56;100391.97;2159495;40;20095;-81
2021/05/29 00:02:21;;;;;;;6.90;2.88;;;;;;;13.66;60.73;100386.13;2192997;40;20095;-82
2021/05/29 00:04:02;;;;;;;4.80;2.70;;;;;;;13.70;60.79;100385.66;2142889;41;20043;-79
2021/05/29 00:05:52;;;;;;;5.28;2.55;;;;;;;13.72;60.76;100380.13;2182073;40;20044;-81
2021/05/29 00:07:24;;;;;;;4.65;2.40;;;;;;;13.70;60.77;100379.44;2188286;40;20036;-81
2021/05/29 00:08:55;;;;;;;6.78;3.00;;;;;;;13.76;60.81;100386.03;2189593;40;20022;-81
2021/05/29 00:10:26;;;;;;;5.35;2.97;;;;;;;13.76;60.57;100377.97;2214019;40;20034;-81
2021/05/29 00:11:58;;;;;;;8.45;2.60;;;;;;;13.75;60.75;100370.91;2194182;40;20034;-81
2021/05/29 00:13:40;;;;;;;6.28;2.75;;;;;;;13.77;60.59;100375.13;2208826;40;20091;-81
2021/05/29 00:15:14;;;;;;;4.55;2.40;;;;;;;13.79;60.49;100377.66;2215630;40;20098;-81
2021/05/29 00:16:53;;;;;;;4.32;2.58;;;;;;;13.81;60.18;100376.50;2226246;40;20391;-79
2021/05/29 00:18:26;;;;;;;6.97;2.35;;;;;;;13.80;60.27;100372.13;2223646;40;20037;-79
2021/05/29 00:19:57;;;;;;;6.28;2.58;;;;;;;13.82;60.18;100378.19;2220559;40;20030;-81
2021/05/29 00:21:29;;;;;;;5.75;3.10;;;;;;;13.81;60.25;100370.28;2219415;40;20404;-80
2021/05/29 00:23:00;;;;;;;5.88;3.00;;;;;;;13.83;60.19;100371.81;2220587;40;20036;-81
2021/05/29 00:24:32;;;;;;;5.53;2.60;;;;;;;13.83;60.28;100376.34;2218913;40;20049;-79
2021/05/29 00:26:02;;;;;;;5.90;2.60;;;;;;;13.81;60.40;100381.88;2221507;40;20041;-80
2021/05/29 00:30:47;;;;;;;5.60;2.72;;;;;;;13.70;61.03;100374.06;2193421;40;20047;-81
2021/05/29 00:32:18;;;;;;;7.57;3.05;;;;;;;13.69;61.07;100364.34;2209730;40;20065;-81
2021/05/29 00:33:50;;;;;;;5.03;2.97;;;;;;;13.63;61.29;100355.06;2191639;40;20445;-78
2021/05/29 00:35:23;;;;;;;5.45;2.40;;;;;;;13.62;61.53;100365.94;2212555;40;20069;-82
2021/05/29 00:37:03;;;;;;;7.70;2.95;;;;;;;13.62;61.68;100374.84;2221361;40;20036;-82
2021/05/29 00:38:34;;;;;;;4.35;2.50;;;;;;;13.59;61.67;100355.53;2224995;40;20045;-81
2021/05/29 00:40:22;;;;;;;4.82;2.47;;;;;;;13.58;61.80;100365.41;2221179;40;20044;-79
2021/05/29 00:42:37;;;;;;;4.30;2.50;;;;;;;13.59;62.04;100352.84;2218567;40;20049;-82
2021/05/29 00:44:45;;;;;;;6.90;2.60;;;;;;;13.51;62.34;100365.19;2215361;40;20029;-82
2021/05/29 00:46:16;;;;;;;6.15;3.42;;;;;;;13.48;62.54;100364.66;2213277;40;20053;-79
2021/05/29 00:47:55;;;;;;;4.80;3.00;;;;;;;13.36;63.04;100364.03;2219210;40;20056;-83
2021/05/29 00:49:27;;;;;;;5.25;2.25;;;;;;;13.33;63.22;100362.53;2222031;40;20029;-81
2021/05/29 00:50:59;;;;;;;5.97;3.03;;;;;;;13.35;63.43;100359.66;2225232;40;20238;-79
2021/05/29 00:53:34;;;;;;;6.70;2.90;;;;;;;13.36;63.40;100372.09;2224972;40;20025;-82
2021/05/29 00:55:09;;;;;;;6.55;3.17;;;;;;;13.33;63.54;100356.28;2215279;40;20056;-81
2021/05/29 00:56:41;;;;;;;5.32;3.10;;;;;;;13.31;63.74;100358.31;2206704;40;20031;-81
2021/05/29 00:58:12;;;;;;;7.88;3.30;;;;;;;13.32;63.84;100368.88;2214383;40;20030;-81
2021/05/29 00:59:44;;;;;;;5.88;3.42;;;;;;;13.22;63.96;100358.25;2210474;40;27689;-79
2021/05/29 01:01:16;;;;;;;5.55;3.00;;;;;;;13.11;64.31;100356.63;2215239;40;20044;-81
2021/05/29 01:02:54;;;;;;;6.32;3.35;;;;;;;13.06;64.44;100356.25;2191171;40;20051;-82
2021/05/29 01:04:27;;;;;;;6.18;3.45;;;;;;;12.99;64.74;100365.06;2208783;40;20070;-82
2021/05/29 01:06:00;;;;;;;6.10;3.30;;;;;;;12.98;65.06;100363.38;2213929;40;20049;-81
2021/05/29 01:07:33;;;;;;;4.90;3.20;;;;;;;13.02;64.78;100373.63;2215145;40;20066;-81
2021/05/29 01:09:05;;;;;;;5.47;3.03;;;;;;;12.99;65.01;100367.75;2192673;40;20044;-81
2021/05/29 01:10:38;;;;;;;5.05;3.25;;;;;;;12.91;65.29;100361.31;2214839;40;20018;-79
2021/05/29 01:12:18;;;;;;;7.20;3.38;;;;;;;12.88;65.29;100363.44;2219874;40;20039;-81
2021/05/29 01:13:49;;;;;;;7.78;3.78;;;;;;;12.88;65.56;100361.59;2220742;40;20379;-81
2021/05/29 01:15:25;;;;;;;5.88;3.30;;;;;;;12.71;66.07;100368.63;2217630;40;20064;-81
2021/05/29 01:16:57;;;;;;;6.35;3.25;;;;;;;12.56;66.48;100371.00;2216671;40;20061;-81
2021/05/29 01:21:02;;;;;;;6.32;2.80;;;;;;;12.60;66.20;100376.91;2200538;40;20421;-80
2021/05/29 01:22:46;;;;;;;4.75;2.80;;;;;;;12.68;65.92;100368.94;2208369;40;20036;-81
2021/05/29 01:24:18;;;;;;;9.05;3.35;;;;;;;12.69;65.79;100377.81;2198956;40;20051;-81
2021/05/29 01:25:51;;;;;;;6.00;2.97;;;;;;;12.64;65.99;100375.59;2201955;40;20121;-80
2021/05/29 01:27:23;;;;;;;5.60;2.75;;;;;;;12.58;66.05;100371.66;2199507;40;20043;-81
2021/05/29 01:28:56;;;;;;;5.63;2.90;;;;;;;12.54;66.14;100381.03;2201209;40;20038;-78
2021/05/29 01:30:28;;;;;;;5.30;2.63;;;;;;;12.51;66.20;100378.63;2190535;40;20046;-79
2021/05/29 01:32:02;;;;;;;5.88;2.40;;;;;;;12.53;65.92;100383.84;2194503;40;20046;-81
2021/05/29 01:33:35;;;;;;;4.65;2.63;;;;;;;12.59;65.71;100381.41;2190189;40;20057;-81
2021/05/29 01:35:11;;;;;;;4.07;2.67;;;;;;;12.58;65.28;100389.59;2208318;40;20049;-81
2021/05/29 01:38:18;;;;;;;6.63;2.50;;;;;;;12.54;65.53;100389.06;2196247;40;20039;-81
2021/05/29 01:39:50;;;;;;;4.78;2.85;;;;;;;12.55;65.55;100376.50;2202996;40;20430;-80
2021/05/29 01:41:23;;;;;;;5.25;2.85;;;;;;;12.49;65.62;100385.97;2203175;40;20120;-79
2021/05/29 01:42:57;;;;;;;6.55;3.10;;;;;;;12.46;65.66;100392.47;2145911;41;20040;-79
2021/05/29 01:44:48;;;;;;;5.10;2.78;;;;;;;12.33;66.05;100391.97;2173912;40;20045;-80
2021/05/29 01:46:23;;;;;;;5.38;2.80;;;;;;;12.34;66.11;100385.63;2202201;40;20023;-78
2021/05/29 01:47:55;;;;;;;4.45;2.65;;;;;;;12.35;66.25;100383.78;2175940;40;20045;-81
2021/05/29 01:49:26;;;;;;;4.68;2.67;;;;;;;12.30;66.39;100387.75;2199733;40;20027;-80
2021/05/29 01:52:56;;;;;;;5.72;2.90;;;;;;;12.28;66.59;100386.22;2209081;40;20034;-81
2021/05/29 01:54:29;;;;;;;3.88;2.40;;;;;;;12.24;66.39;100383.00;2205051;40;20085;-82
2021/05/29 01:56:03;;;;;;;4.65;2.40;;;;;;;12.26;66.49;100380.16;2208764;40;20086;-83
2021/05/29 01:57:34;;;;;;;5.53;2.72;;;;;;;12.29;66.33;100383.38;2177692;40;20055;-82
2021/05/29 01:59:06;;;;;;;5.93;2.25;;;;;;;12.28;66.37;100383.53;2184480;40;20055;-82
2021/05/29 02:00:57;;;;;;;6.22;2.67;;;;;;;12.29;66.49;100386.06;2146337;41;20057;-81
2021/05/29 02:02:37;;;;;;;4.72;2.60;;;;;;;12.24;66.48;100380.31;2166159;40;20065;-80
2021/05/29 02:04:09;;;;;;;5.60;2.30;;;;;;;12.28;66.53;100392.41;2201766;40;20043;-81
2021/05/29 02:05:41;;;;;;;4.97;2.50;;;;;;;12.29;66.60;100386.06;2208976;40;20026;-81
2021/05/29 02:07:12;;;;;;;5.32;2.85;;;;;;;12.31;66.52;100383.25;2203281;40;20053;-82
2021/05/29 02:08:44;;;;;;;3.53;1.92;;;;;;;12.28;66.55;100384.38;2204275;40;26442;-79
2021/05/29 02:10:20;;;;;;;3.80;2.00;;;;;;;12.29;66.73;100383.38;2213658;40;20030;-79
2021/05/29 02:11:57;;;;;;;7.43;3.13;;;;;;;12.25;66.68;100383.81;2212546;40;20057;-83
2021/05/29 02:13:37;;;;;;;6.28;3.28;;;;;;;12.17;66.87;100387.25;2215408;40;20034;-82
2021/05/29 02:15:11;;;;;;;8.38;3.30;;;;;;;12.12;67.01;100387.69;2202804;40;20054;-79
2021/05/29 02:16:43;;;;;;;5.18;2.90;;;;;;;12.10;66.99;100391.50;2211221;40;20018;-80
2021/05/29 02:20:46;;;;;;;4.53;2.50;;;;;;;12.07;66.90;100391.81;2210301;40;20042;-81
2021/05/29 02:22:17;;;;;;;6.78;3.00;;;;;;;11.98;67.00;100386.34;2211792;40;20042;-81
2021/05/29 02:23:51;;;;;;;5.82;3.13;;;;;;;11.96;67.07;100392.78;2200537;40;20043;-82
2021/05/29 02:25:23;;;;;;;6.25;2.78;;;;;;;11.95;67.23;100399.16;2195073;40;20050;-81
2021/05/29 02:26:54;;;;;;;5.13;3.00;;;;;;;11.86;67.41;100390.13;2200131;40;20046;-81
2021/05/29 02:28:27;;;;;;;7.35;3.40;;;;;;;11.75;67.64;100393.84;2197125;40;20038;-80
2021/05/29 02:30:02;;;;;;;8.68;3.15;;;;;;;11.66;68.20;100398.22;2202347;40;20043;-81
2021/05/29 02:31:33;;;;;;;6.38;3.47;;;;;;;11.61;68.34;100397.81;2195790;40;20027;-80
2021/05/29 02:33:06;;;;;;;8.25;3.83;;;;;;;11.55;68.57;100393.00;2205933;40;20046;-80
2021/05/29 02:34:37;;;;;;;5.00;3.17;;;;;;;11.48;68.70;100394.56;2210710;40;20119;-81
2021/05/29 02:36:09;;;;;;;7.35;3.08;;;;;;;11.43;68.99;100394.16;2214643;40;20053;-83
2021/05/29 02:37:40;;;;;;;4.85;2.80;;;;;;;11.39;69.05;100396.25;2213105;40;20375;-80
2021/05/29 02:39:12;;;;;;;5.60;3.10;;;;;;;11.28;69.32;100394.56;2207721;40;20053;-80
2021/05/29 02:40:47;;;;;;;6.25;2.80;;;;;;;11.23;69.45;100396.84;2214587;40;20069;-81
2021/05/29 03:04:10;;;;;;;9.93;3.15;;;;;;;10.85;70.20;100411.84;2200785;40;20286;-82
2021/05/29 03:05:43;;;;;;;5.72;2.95;;;;;;;10.82;70.29;100418.31;2195038;40;20030;-78
2021/05/29 03:07:16;;;;;;;7.18;3.40;;;;;;;10.80;70.15;100411.41;2198377;40;20051;-80
2021/05/29 03:08:51;;;;;;;8.27;2.72;;;;;;;10.83;70.09;100411.16;2198354;40;20046;-82
2021/05/29 03:10:30;;;;;;;7.80;3.20;;;;;;;10.83;69.97;100419.16;2199155;40;20056;-84
2021/05/29 03:12:10;;;;;;;4.70;2.85;;;;;;;10.81;70.05;100421.13;2193972;40;20040;-80
2021/05/29 03:13:44;;;;;;;5.20;2.78;;;;;;;10.75;69.99;100418.03;2192731;40;20027;-80
2021/05/29 03:15:19;;;;;;;5.90;3.22;;;;;;;10.72;70.29;100431.66;2186326;40;20044;-80
2021/05/29 03:16:53;;;;;;;7.85;3.60;;;;;;;10.71;70.29;100426.47;2185176;40;20043;-82
2021/05/29 03:18:44;;;;;;;6.43;2.75;;;;;;;10.66;70.25;100428.69;2187528;40;20064;-83
2021/05/29 03:20:19;;;;;;;4.78;2.80;;;;;;;10.68;70.31;100427.56;2191878;40;20036;-79
2021/05/29 03:21:51;;;;;;;6.20;2.80;;;;;;;10.66;70.38;100426.88;2189414;40;20044;-79
2021/05/29 03:23:24;;;;;;;6.13;3.00;;;;;;;10.65;70.20;100419.81;2191255;40;20048;-80
2021/05/29 03:24:56;;;;;;;6.82;3.10;;;;;;;10.61;70.42;100426.41;2187439;40;20032;-79
2021/05/29 03:26:27;;;;;;;6.90;3.20;;;;;;;10.57;70.49;100430.34;2183479;40;20040;-79
2021/05/29 03:28:08;;;;;;;5.47;2.97;;;;;;;10.56;70.57;100428.66;2184473;40;20092;-81
2021/05/29 03:29:39;;;;;;;7.43;2.90;;;;;;;10.54;70.55;100430.63;2183306;40;20045;-78
2021/05/29 03:31:11;;;;;;;5.10;2.38;;;;;;;10.60;70.27;100432.75;2186702;40;20031;-78
2021/05/29 03:32:42;;;;;;;5.43;2.80;;;;;;;10.68;70.04;100432.91;2190122;40;20054;-78
2021/05/29 03:34:19;;;;;;;5.20;3.42;;;;;;;10.68;69.70;100430.22;2191250;40;20067;-80
2021/05/29 03:35:52;;;;;;;6.35;2.85;;;;;;;10.61;69.91;100434.44;2188292;40;20055;-79
2021/05/29 03:37:24;;;;;;;7.47;3.13;;;;;;;10.56;70.11;100434.84;2191440;40;20487;-81
2021/05/29 03:39:29;;;;;;;6.63;2.83;;;;;;;10.54;69.85;100427.94;2190977;40;20051;-81
2021/05/29 03:41:01;;;;;;;11.70;2.83;;;;;;;10.54;70.13;100427.94;2197271;40;20039;-79
2021/05/29 03:42:32;;;;;;;6.28;2.63;;;;;;;10.52;70.20;100432.56;2195024;40;20510;-80
2021/05/29 03:44:03;;;;;;;7.15;2.95;;;;;;;10.45;70.30;100426.91;2196286;40;20035;-79
2021/05/29 03:45:35;;;;;;;4.95;2.92;;;;;;;10.42;70.39;100436.06;2188105;40;20051;-78
2021/05/29 03:47:12;;;;;;;5.82;2.67;;;;;;;10.41;70.50;100442.38;2186432;40;20037;-79
2021/05/29 03:50:41;;;;;;;4.82;2.80;;;;;;;10.42;70.18;100432.56;2195887;40;20054;-78
2021/05/29 03:52:13;;;;;;;7.65;2.80;;;;;;;10.48;70.10;100441.88;2187025;40;20040;-80
2021/05/29 03:53:45;;;;;;;4.70;2.10;;;;;;;10.52;69.98;100443.28;2172518;40;22351;-79
2021/05/29 03:55:18;;;;;;;5.40;2.55;;;;;;;10.61;69.73;100442.47;2180051;41;20532;-80
2021/05/29 03:56:52;;;;;;;5.65;2.30;;;;;;;10.69;69.51;100455.16;2185231;40;20056;-82
2021/05/29 03:58:26;;;;;;;4.72;2.30;;;;;;;10.77;69.21;100444.63;2174400;41;20078;-84
2021/05/29 04:00:07;;;;;;;6.15;2.95;;;;;;;10.86;68.76;100453.66;2169516;41;20030;-80
2021/05/29 04:01:39;;;;;;;4.82;2.45;;;;;;;10.91;68.64;100460.28;2184725;41;20028;-78
2021/05/29 04:03:11;;;;;;;5.50;2.65;;;;;;;10.92;68.30;100450.44;2180988;40;20615;-77
2021/05/29 04:04:42;;;;;;;5.55;2.17;;;;;;;10.98;68.35;100455.22;2166654;41;20025;-81
2021/05/29 04:06:14;;;;;;;5.93;2.30;;;;;;;11.00;68.56;100455.94;2160673;41;20112;-78
2021/05/29 04:07:47;;;;;;;5.18;2.20;;;;;;;11.01;68.14;100460.31;2160817;41;20038;-79
2021/05/29 04:09:19;;;;;;;4.82;2.35;;;;;;;11.04;68.01;100457.38;2152463;41;20098;-80
2021/05/29 04:10:51;;;;;;;5.68;2.78;;;;;;;11.03;68.22;100457.50;2160037;41;20627;-81
2021/05/29 04:12:26;;;;;;;6.20;2.60;;;;;;;11.00;68.32;100461.28;2151809;41;20041;-83
2021/05/29 04:13:58;;;;;;;4.25;2.25;;;;;;;10.99;68.11;100461.44;2150289;41;20448;-81
2021/05/29 04:15:30;;;;;;;11.88;2.67;;;;;;;10.99;68.25;100456.09;2156789;41;20035;-82
2021/05/29 04:17:02;;;;;;;6.00;2.60;;;;;;;10.96;68.22;100465.22;2154312;41;20601;-81
2021/05/29 04:20:33;;;;;;;4.00;2.25;;;;;;;11.03;68.19;100453.00;2139007;41;20056;-81
2021/05/29 04:22:04;;;;;;;5.78;2.35;;;;;;;11.07;67.92;100462.44;2186637;40;20044;-78
2021/05/29 04:23:37;;;;;;;6.40;2.80;;;;;;;11.12;67.88;100458.50;2189173;40;20063;-79
2021/05/29 04:25:10;;;;;;;7.07;3.25;;;;;;;11.11;67.80;100462.16;2194642;40;20040;-79
2021/05/29 04:26:41;;;;;;;4.10;1.88;;;;;;;11.13;67.66;100458.34;2158059;40;20020;-81
2021/05/29 04:28:13;;;;;;;4.80;2.05;;;;;;;11.19;67.47;100465.81;2186266;40;20031;-80
2021/05/29 04:29:45;;;;;;;4.20;1.85;;;;;;;11.21;67.31;100458.50;2186361;40;22663;-79
2021/05/29 04:31:17;;;;;;;5.85;2.00;;;;;;;11.23;67.40;100461.06;2194738;40;20038;-78
2021/05/29 04:32:48;;;;;;;4.55;2.10;;;;;;;11.24;67.24;100455.56;2174210;40;20056;-78
2021/05/29 04:34:20;;;;;;;4.75;2.28;;;;;;;11.24;67.28;100455.56;2189176;40;20060;-79
2021/05/29 04:35:51;;;;;;;4.78;2.40;;;;;;;11.27;67.29;100453.59;2165392;40;20064;-78
2021/05/29 04:37:23;;;;;;;4.35;2.20;;;;;;;11.30;66.95;100459.50;2188894;40;20038;-79
2021/05/29 04:38:55;;;;;;;5.05;2.40;;;;;;;11.31;66.95;100463.03;2184516;40;20096;-78
2021/05/29 04:40:27;;;;;;;4.78;2.50;;;;;;;11.26;66.72;100466.13;2190279;40;20047;-80
2021/05/29 04:42:04;;;;;;;5.50;2.47;;;;;;;11.28;66.76;100463.31;2193102;40;20120;-81
2021/05/29 04:43:42;;;;;;;4.97;2.42;;;;;;;11.32;66.56;100462.03;2196657;40;20083;-83
2021/05/29 04:45:21;;;;;;;5.65;2.30;;;;;;;11.42;66.60;100464.75;2196439;40;20034;-82
2021/05/29 04:46:52;;;;;;;5.38;2.33;;;;;;;11.47;66.30;100470.50;2187832;40;20370;-82
2021/05/29 04:48:25;;;;;;;4.53;1.92;;;;;;;11.51;66.33;100471.94;2161915;40;20432;-81
2021/05/29 04:49:56;;;;;;;4.65;2.15;;;;;;;11.48;66.38;100472.19;2186758;40;20573;-83
2021/05/29 04:53:50;;;;;;;3.60;1.92;;;;;;;11.44;66.09;100466.28;2195925;40;20035;-81
2021/05/29 04:55:23;;;;;;;5.50;2.53;;;;;;;11.45;66.15;100472.47;2195895;40;20051;-81
2021/05/29 04:56:55;;;;;;;4.80;2.90;;;;;;;11.45;65.98;100472.47;2185302;40;20039;-80
2021/05/29 04:58:27;;;;;;;5.43;2.58;;;;;;;11.44;66.16;100460.94;2193017;40;20089;-80
2021/05/29 05:00:00;;;;;;;5.45;2.78;;;;;;;11.46;65.93;100467.00;2142714;40;20084;-80
2021/05/29 05:01:32;;;;;;;4.45;2.25;;;;;;;11.53;66.04;100475.28;2179610;40;20059;-80
2021/05/29 05:03:03;;;;;;;4.22;2.33;;;;;;;11.60;65.90;100472.91;2164536;41;20160;-79
2021/05/29 05:04:34;;;;;;;4.68;2.40;;;;;;;11.67;65.61;100477.56;2170364;41;20065;-79
2021/05/29 05:06:07;;;;;;;4.18;2.15;;;;;;;11.73;65.42;100475.28;2155989;40;20059;-79
2021/05/29 05:07:38;;;;;;;6.20;2.58;;;;;;;11.78;65.19;100473.88;2175284;41;20419;-82
2021/05/29 05:09:10;;;;;;;6.50;2.80;;;;;;;11.83;65.13;100481.50;2175184;41;20029;-81
2021/05/29 05:10:42;;;;;;;5.72;3.03;;;;;;;11.84;64.98;100470.66;2178468;41;20025;-81
2021/05/29 05:12:14;;;;;;;6.43;2.80;;;;;;;11.88;64.88;100471.22;2164475;40;21094;-80
2021/05/29 05:13:45;;;;;;;8.13;3.33;;;;;;;11.94;64.81;100475.16;2172761;41;20045;-79
2021/05/29 05:15:16;;;;;;;7.80;2.72;;;;;;;11.98;64.40;100468.53;2141835;40;20037;-79
2021/05/29 05:16:48;;;;;;;4.35;2.03;;;;;;;11.99;64.59;100476.44;2166708;41;20061;-78
2021/05/29 05:18:21;;;;;;;5.25;2.55;;;;;;;12.01;64.31;100471.75;2163581;40;20025;-83
2021/05/29 05:19:55;;;;;;;5.72;2.33;;;;;;;12.03;64.14;100468.97;2180149;41;20032;-81
2021/05/29 05:21:27;;;;;;;7.38;2.63;;;;;;;12.06;64.25;100476.69;2184084;40;20036;-81
2021/05/29 05:22:58;;;;;;;5.88;3.20;;;;;;;12.09;64.16;100486.31;2170210;41;20033;-80
2021/05/29 05:24:30;;;;;;;5.38;3.25;;;;;;;11.97;64.18;100477.53;2161992;40;20265;-81
2021/05/29 05:26:13;;;;;;;5.00;2.72;;;;;;;11.76;64.52;100481.19;2180100;40;20523;-81
2021/05/29 05:27:56;;;;;;;5.72;2.88;;;;;;;11.65;64.71;100484.88;2193825;40;20102;-81
2021/05/29 05:31:57;;;;;;;6.32;3.40;;;;;;;11.58;65.32;100480.22;2191115;40;20091;-79
2021/05/29 05:33:29;;;;;;;4.65;2.53;;;;;;;11.61;65.21;100487.97;2193036;40;20386;-79
2021/05/29 05:35:01;;;;;;;6.30;2.47;;;;;;;11.68;65.05;100489.97;2196757;40;20043;-79
2021/05/29 05:36:33;;;;;;;5.22;2.70;;;;;;;11.79;64.88;100496.16;2195345;40;20057;-80
2021/05/29 05:38:08;;;;;;;8.00;3.45;;;;;;;11.86;64.88;100494.59;2196909;40;20063;-82
2021/05/29 05:39:40;;;;;;;5.07;2.80;;;;;;;11.90;64.60;100493.34;2191540;40;20058;-79
2021/05/29 05:41:12;;;;;;;5.80;2.38;;;;;;;12.01;64.41;100497.72;2197465;40;20051;-78
2021/05/29 05:42:43;;;;;;;5.07;2.30;;;;;;;12.07;64.23;100488.28;2195479;40;20051;-79
2021/05/29 05:53:54;;;;;;;6.65;2.78;;;;;;;12.33;63.06;100489.34;2178222;40;20516;-82
2021/05/29 05:55:26;;;;;;;7.00;3.03;;;;;;;12.24;63.15;100492.88;2173837;40;20035;-79
2021/05/29 05:56:58;;;;;;;5.25;3.15;;;;;;;12.19;63.27;100503.19;2191232;40;20727;-81
2021/05/29 05:58:31;;;;;;;6.43;2.90;;;;;;;12.12;63.37;100496.72;2195625;40;20035;-80
2021/05/29 06:00:05;;;;;;;6.78;3.03;;;;;;;12.15;63.48;100507.16;2182794;40;20140;-79
2021/05/29 06:01:38;;;;;;;7.95;3.13;;;;;;;12.17;63.45;100505.19;2186976;40;20063;-80
2021/05/29 06:03:10;;;;;;;7.60;3.17;;;;;;;12.15;63.37;100512.53;2174295;40;20056;-78
2021/05/29 06:04:42;;;;;;;6.72;3.00;;;;;;;12.15;63.64;100505.31;2184635;40;20106;-80
2021/05/29 06:06:13;;;;;;;7.03;3.55;;;;;;;12.15;63.27;100507.97;2182050;40;20727;-80
2021/05/29 06:07:45;;;;;;;6.68;3.17;;;;;;;12.21;63.22;100503.88;2196750;40;20039;-81
2021/05/29 06:09:23;;;;;;;7.18;3.00;;;;;;;12.19;63.34;100499.66;2195797;40;20454;-81
2021/05/29 06:11:01;;;;;;;5.38;3.13;;;;;;;12.18;63.46;100498.84;2198263;40;20067;-82
2021/05/29 06:12:37;;;;;;;6.15;2.90;;;;;;;12.17;63.62;100502.50;2185685;40;20419;-82
2021/05/29 06:18:03;;;;;;;10.85;5.40;;;;;;;12.48;63.06;100510.31;2163330;40;20047;-81
2021/05/29 06:19:36;;;;;;;11.23;7.90;;;;;;;12.62;62.64;100509.84;2180487;40;20087;-82
2021/05/29 06:21:09;;;;;;;7.55;4.25;;;;;;;12.71;62.16;100507.28;2179540;41;20053;-82
2021/05/29 06:22:41;;;;;;;5.03;3.08;;;;;;;12.69;62.26;100504.75;2179624;41;20033;-82
2021/05/29 06:24:16;;;;;;;6.50;3.00;;;;;;;12.74;62.45;100498.94;2151239;40;20792;-80
2021/05/29 06:25:51;;;;;;;7.07;2.80;;;;;;;12.78;62.37;100505.69;2179678;40;20039;-81
2021/05/29 06:27:26;;;;;;;6.68;2.80;;;;;;;12.86;62.05;100508.47;2193227;40;20032;-82
2021/05/29 06:28:59;;;;;;;6.15;3.45;;;;;;;12.87;61.77;100515.53;2191503;40;20068;-81
2021/05/29 06:30:31;;;;;;;6.03;2.92;;;;;;;12.89;61.86;100502.81;2170355;40;20099;-79
2021/05/29 06:32:07;;;;;;;7.25;2.90;;;;;;;12.95;61.57;100504.88;2187069;40;20027;-81
2021/05/29 06:33:39;;;;;;;6.80;2.60;;;;;;;13.05;61.43;100504.84;2172651;40;20052;-82
2021/05/29 06:35:13;;;;;;;4.13;2.45;;;;;;;13.14;61.21;100503.09;2173862;41;20125;-79
2021/05/29 06:36:45;;;;;;;4.65;2.22;;;;;;;13.21;60.79;100509.56;2132671;41;20115;-81
2021/05/29 06:40:32;;;;;;;4.75;2.45;;;;;;;13.48;60.31;100513.25;2151792;41;20050;-83
2021/05/29 06:42:04;;;;;;;6.35;2.30;;;;;;;13.61;59.99;100514.69;2159836;41;20046;-80
2021/05/29 06:43:35;;;;;;;4.63;2.50;;;;;;;13.72;59.51;100503.72;2158985;41;20041;-81
2021/05/29 06:45:09;;;;;;;7.53;4.32;;;;;;;13.84;59.32;100504.31;2155339;41;20142;-79
2021/05/29 06:46:43;;;;;;;7.50;4.30;;;;;;;13.92;58.78;100501.72;2157169;41;20101;-81
2021/05/29 06:48:24;;;;;;;5.95;3.38;;;;;;;14.09;58.51;100502.66;2168010;41;20051;-82
2021/05/29 06:50:16;;;;;;;6.35;2.58;;;;;;;14.24;58.08;100494.88;2172930;41;20044;-82
2021/05/29 06:51:54;;;;;;;4.93;2.40;;;;;;;14.40;57.54;100496.00;2164496;41;20041;-79
2021/05/29 06:53:29;;;;;;;5.35;2.97;;;;;;;14.53;57.28;100490.19;2179838;40;20024;-78
2021/05/29 06:58:35;;;;;;;4.03;2.03;;;;;;;14.65;57.10;100491.56;2184279;40;20036;-83
2021/05/29 06:59:07;;;;;;;5.45;2.72;;;;;;;14.99;56.33;100488.06;2192062;40;20028;-80
2021/05/29 07:00:40;;;;;;;4.05;2.20;;;;;;;15.13;55.91;100492.81;2190643;40;20039;-79
2021/05/29 07:04:39;;;;;;;3.60;2.00;;;;;;;15.44;55.24;100499.47;2179391;40;20040;-81
2021/05/29 07:06:11;;;;;;;4.82;2.28;;;;;;;15.55;54.89;100493.72;2189935;40;20056;-82
2021/05/29 07:07:43;;;;;;;5.80;2.20;;;;;;;15.72;54.34;100485.69;2191400;40;20031;-85
2021/05/29 07:09:18;;;;;;;4.47;2.25;;;;;;;15.86;53.87;100490.44;2189606;40;20047;-84
2021/05/29 07:10:49;;;;;;;3.80;2.38;;;;;;;16.00;53.62;100486.19;2191253;40;20035;-84
2021/05/29 07:12:20;;;;;;;6.20;2.88;;;;;;;16.09;53.26;100484.34;2190262;40;20091;-84
2021/05/29 07:13:52;;;;;;;4.55;2.10;;;;;;;16.12;53.06;100483.16;2190834;40;20617;-80
2021/05/29 07:15:27;;;;;;;5.97;2.58;;;;;;;16.21;52.98;100488.38;2190281;40;20052;-79
2021/05/29 07:17:01;;;;;;;5.00;2.35;;;;;;;16.40;52.48;100490.88;2195551;40;20024;-79
2021/05/29 07:18:35;;;;;;;6.85;2.63;;;;;;;16.38;52.09;100489.19;2190359;40;20050;-80
2021/05/29 07:20:08;;;;;;;5.55;2.50;;;;;;;16.31;51.62;100490.03;2195119;40;20045;-87
2021/05/29 07:21:39;;;;;;;7.70;3.25;;;;;;;16.29;51.88;100490.22;2196169;40;20040;-85
2021/05/29 07:23:11;;;;;;;5.38;2.58;;;;;;;16.43;51.60;100485.97;2197938;40;20201;-80
2021/05/29 07:24:43;;;;;;;4.50;2.28;;;;;;;16.63;51.30;100489.09;2194257;40;20094;-79
2021/05/29 07:26:14;;;;;;;5.85;2.60;;;;;;;16.80;50.49;100480.97;2197441;40;20062;-80
2021/05/29 07:27:45;;;;;;;5.50;2.60;;;;;;;16.93;50.33;100486.66;2196285;40;20067;-79
2021/05/29 07:29:18;;;;;;;5.55;1.80;;;;;;;17.08;50.01;100488.63;2197811;40;20059;-81
2021/05/29 07:30:50;;;;;;;6.63;2.60;;;;;;;17.18;49.37;100480.28;2193805;40;20051;-85
2021/05/29 07:32:22;;;;;;;5.55;2.08;;;;;;;17.22;49.25;100485.16;2197683;40;20262;-80
2021/05/29 07:33:55;;;;;;;4.10;1.95;;;;;;;17.39;48.81;100482.34;2196115;40;20049;-84
2021/05/29 07:35:28;;;;;;;9.82;2.10;;;;;;;17.52;48.51;100485.31;2196244;40;20562;-82
2021/05/29 07:36:59;;;;;;;4.25;1.75;;;;;;;17.62;48.13;100485.06;2197634;40;20032;-83
2021/05/29 07:38:31;;;;;;;5.53;2.15;;;;;;;17.74;48.26;100482.78;2192020;40;20040;-85
2021/05/29 07:40:04;;;;;;;5.35;2.10;;;;;;;17.72;47.50;100484.84;2182337;40;20420;-80
2021/05/29 07:41:36;;;;;;;7.13;2.78;;;;;;;17.46;46.67;100481.47;2189579;40;20035;-80
2021/05/29 07:43:07;;;;;;;4.97;2.10;;;;;;;17.41;46.29;100488.44;2190124;40;20441;-79
2021/05/29 07:44:39;;;;;;;5.05;2.40;;;;;;;17.36;46.76;100486.25;2188392;40;20024;-80
2021/05/29 07:46:10;;;;;;;5.45;2.10;;;;;;;17.40;46.46;100486.75;2196902;40;20034;-85
2021/05/29 07:47:43;;;;;;;4.40;2.28;;;;;;;17.37;46.95;100481.72;2190798;40;20048;-81
2021/05/29 07:49:15;;;;;;;8.35;2.83;;;;;;;17.34;46.66;100482.88;2197077;40;20027;-80
2021/05/29 07:51:00;;;;;;;3.35;1.60;;;;;;;17.44;46.70;100479.97;2195985;40;20037;-80
2021/05/29 07:52:32;;;;;;;5.03;2.03;;;;;;;17.71;46.15;100478.56;2197682;40;20019;-81
2021/05/29 07:54:05;;;;;;;4.63;2.08;;;;;;;17.85;46.21;100479.66;2195690;40;20038;-81
2021/05/29 07:55:36;;;;;;;4.95;2.20;;;;;;;18.01;45.81;100483.28;2197329;40;20040;-80
2021/05/29 07:57:10;;;;;;;4.53;1.80;;;;;;;18.10;45.08;100479.47;2195957;40;20035;-81
2021/05/29 07:58:42;;;;;;;6.88;1.90;;;;;;;18.17;44.18;100480.41;2197042;40;20043;-80
2021/05/29 08:00:21;;;;;;;5.75;2.25;;;;;;;18.27;43.36;100480.16;2195267;40;20359;-83
2021/05/29 08:01:53;;;;;;;11.88;2.35;;;;;;;18.46;42.68;100480.63;2191485;40;20035;-85
2021/05/29 08:03:27;;;;;;;14.45;3.65;;;;;;;18.43;42.26;100478.28;2189236;40;20617;-81
2021/05/29 08:04:58;;;;;;;6.63;1.75;;;;;;;18.55;42.14;100479.50;2193901;40;20038;-81
2021/05/29 08:06:30;;;;;;;5.20;1.90;;;;;;;18.71;42.51;100475.75;2195434;40;20427;-82
2021/05/29 08:08:01;;;;;;;6.05;1.85;;;;;;;18.98;42.04;100476.97;2196790;40;20055;-80
2021/05/29 08:09:33;;;;;;;4.60;1.85;;;;;;;19.12;42.06;100472.56;2195979;40;20403;-81
2021/05/29 08:11:04;;;;;;;5.43;1.40;;;;;;;19.31;41.86;100473.81;2196922;40;20036;-81
2021/05/29 08:12:36;;;;;;;3.60;1.38;;;;;;;19.49;41.28;100476.06;2195819;40;20121;-81
2021/05/29 08:14:10;;;;;;;4.20;1.42;;;;;;;19.58;40.66;100470.50;2197307;40;20031;-81
2021/05/29 08:15:43;;;;;;;3.72;1.58;;;;;;;19.64;40.42;100477.91;2199643;40;20047;-84
2021/05/29 08:17:14;;;;;;;5.00;1.60;;;;;;;19.67;39.41;100465.81;2203512;40;20027;-84
2021/05/29 08:18:47;;;;;;;5.15;1.60;;;;;;;19.66;39.61;100470.38;2169175;40;20031;-85
2021/05/29 08:20:19;;;;;;;4.95;1.83;;;;;;;19.78;39.65;100457.97;2194270;40;20557;-85